sensor_id;sensor_type;location;lat;lon;timestamp;pressure;altitude;pressure_sealevel;temperature;humidity
28181;BME280;15464;50.988;10.318;2023-03-13T00:01:46;98099.38;;;7.08;89.97
28181;BME280;15464;50.988;10.318;2023-03-13T00:04:14;98106.03;;;7.03;90.48
28181;BME280;15464;50.988;10.318;2023-03-13T00:06:40;98098.22;;;7.01;90.70
28181;BME280;15464;50.988;10.318;2023-03-13T00:09:09;98105.47;;;6.99;91.19
28181;BME280;15464;50.988;10.318;2023-03-13T00:11:37;98109.69;;;7.11;90.06
28181;BME280;15464;50.988;10.318;2023-03-13T00:14:05;98113.94;;;7.23;89.41
28181;BME280;15464;50.988;10.318;2023-03-13T00:16:32;98100.22;;;7.29;88.72
28181;BME280;15464;50.988;10.318;2023-03-13T00:19:03;98103.63;;;7.20;89.43
28181;BME280;15464;50.988;10.318;2023-03-13T00:21:31;98092.63;;;7.15;89.83
28181;BME280;15464;50.988;10.318;2023-03-13T00:23:58;98087.25;;;7.17;89.72
28181;BME280;15464;50.988;10.318;2023-03-13T00:26:26;98087.81;;;7.20;89.42
28181;BME280;15464;50.988;10.318;2023-03-13T00:28:53;98085.88;;;7.22;89.27
28181;BME280;15464;50.988;10.318;2023-03-13T00:31:28;98078.69;;;7.24;88.79
28181;BME280;15464;50.988;10.318;2023-03-13T00:34:02;98077.13;;;7.22;89.35
28181;BME280;15464;50.988;10.318;2023-03-13T00:36:31;98077.53;;;7.17;89.33
28181;BME280;15464;50.988;10.318;2023-03-13T00:38:58;98080.69;;;7.11;89.73
28181;BME280;15464;50.988;10.318;2023-03-13T00:41:27;98073.09;;;7.18;89.43
28181;BME280;15464;50.988;10.318;2023-03-13T00:43:55;98065.66;;;7.33;88.21
28181;BME280;15464;50.988;10.318;2023-03-13T00:46:24;98072.56;;;7.24;88.93
28181;BME280;15464;50.988;10.318;2023-03-13T00:48:51;98058.25;;;7.26;88.35
28181;BME280;15464;50.988;10.318;2023-03-13T00:51:19;98060.91;;;7.26;88.79
28181;BME280;15464;50.988;10.318;2023-03-13T00:53:46;98060.06;;;7.26;88.63
28181;BME280;15464;50.988;10.318;2023-03-13T00:56:15;98068.63;;;7.18;89.03
28181;BME280;15464;50.988;10.318;2023-03-13T00:58:43;98056.44;;;7.17;89.25
28181;BME280;15464;50.988;10.318;2023-03-13T01:01:24;98062.97;;;7.23;88.76
28181;BME280;15464;50.988;10.318;2023-03-13T01:03:56;98058.00;;;7.29;88.75
28181;BME280;15464;50.988;10.318;2023-03-13T01:06:26;98056.22;;;7.30;89.01
28181;BME280;15464;50.988;10.318;2023-03-13T01:08:54;98052.34;;;7.34;88.32
28181;BME280;15464;50.988;10.318;2023-03-13T01:11:26;98055.09;;;7.33;88.66
28181;BME280;15464;50.988;10.318;2023-03-13T01:13:58;98049.13;;;7.31;88.74
28181;BME280;15464;50.988;10.318;2023-03-13T01:16:27;98053.41;;;7.32;88.75
28181;BME280;15464;50.988;10.318;2023-03-13T01:18:56;98048.44;;;7.28;89.50
28181;BME280;15464;50.988;10.318;2023-03-13T01:21:25;98040.09;;;7.33;88.79
28181;BME280;15464;50.988;10.318;2023-03-13T01:23:52;98034.28;;;7.39;88.79
28181;BME280;15464;50.988;10.318;2023-03-13T01:26:20;98020.41;;;7.37;88.87
28181;BME280;15464;50.988;10.318;2023-03-13T01:28:48;98018.47;;;7.39;88.66
28181;BME280;15464;50.988;10.318;2023-03-13T01:31:27;98025.28;;;7.42;88.70
28181;BME280;15464;50.988;10.318;2023-03-13T01:33:57;98014.34;;;7.56;87.98
28181;BME280;15464;50.988;10.318;2023-03-13T01:36:24;98003.78;;;7.56;88.13
28181;BME280;15464;50.988;10.318;2023-03-13T01:38:54;97994.91;;;7.57;88.10
28181;BME280;15464;50.988;10.318;2023-03-13T01:41:22;97984.50;;;7.55;88.12
28181;BME280;15464;50.988;10.318;2023-03-13T01:43:50;97982.13;;;7.52;89.01
28181;BME280;15464;50.988;10.318;2023-03-13T01:46:24;97984.34;;;7.57;89.00
28181;BME280;15464;50.988;10.318;2023-03-13T01:48:55;97974.75;;;7.56;88.83
28181;BME280;15464;50.988;10.318;2023-03-13T01:51:29;97978.84;;;7.79;87.25
28181;BME280;15464;50.988;10.318;2023-03-13T01:54:13;97970.53;;;7.74;87.53
28181;BME280;15464;50.988;10.318;2023-03-13T01:56:45;97979.69;;;7.80;87.32
28181;BME280;15464;50.988;10.318;2023-03-13T01:59:15;97958.00;;;7.76;87.88
28181;BME280;15464;50.988;10.318;2023-03-13T02:01:45;97958.53;;;7.70;88.36
28181;BME280;15464;50.988;10.318;2023-03-13T02:04:14;97954.22;;;7.69;88.49
28181;BME280;15464;50.988;10.318;2023-03-13T02:06:46;97951.34;;;7.72;88.32
28181;BME280;15464;50.988;10.318;2023-03-13T02:09:20;97934.78;;;7.70;88.78
28181;BME280;15464;50.988;10.318;2023-03-13T02:12:02;97930.66;;;7.67;88.79
28181;BME280;15464;50.988;10.318;2023-03-13T02:14:32;97927.16;;;7.67;88.82
28181;BME280;15464;50.988;10.318;2023-03-13T02:17:00;97942.28;;;7.65;88.97
28181;BME280;15464;50.988;10.318;2023-03-13T02:19:49;97921.19;;;7.65;89.19
28181;BME280;15464;50.988;10.318;2023-03-13T02:27:38;97919.91;;;7.69;89.08
28181;BME280;15464;50.988;10.318;2023-03-13T02:30:08;97907.16;;;7.64;89.63
28181;BME280;15464;50.988;10.318;2023-03-13T02:32:35;97900.06;;;7.65;89.90
28181;BME280;15464;50.988;10.318;2023-03-13T02:35:06;97891.88;;;7.68;89.64
28181;BME280;15464;50.988;10.318;2023-03-13T02:37:34;97897.44;;;7.65;89.81
28181;BME280;15464;50.988;10.318;2023-03-13T02:40:05;97906.72;;;7.69;89.33
28181;BME280;15464;50.988;10.318;2023-03-13T02:42:37;97896.03;;;7.70;89.47
28181;BME280;15464;50.988;10.318;2023-03-13T02:45:04;97889.38;;;7.76;89.26
28181;BME280;15464;50.988;10.318;2023-03-13T02:47:31;97895.78;;;7.74;89.58
28181;BME280;15464;50.988;10.318;2023-03-13T02:49:58;97896.16;;;7.88;88.67
28181;BME280;15464;50.988;10.318;2023-03-13T02:52:30;97882.56;;;7.83;89.11
28181;BME280;15464;50.988;10.318;2023-03-13T02:55:02;97868.00;;;7.79;89.31
28181;BME280;15464;50.988;10.318;2023-03-13T02:57:30;97854.09;;;7.77;89.72
28181;BME280;15464;50.988;10.318;2023-03-13T02:59:57;97850.34;;;7.80;89.56
28181;BME280;15464;50.988;10.318;2023-03-13T03:02:23;97849.38;;;7.81;89.39
28181;BME280;15464;50.988;10.318;2023-03-13T03:04:50;97848.53;;;7.90;89.22
28181;BME280;15464;50.988;10.318;2023-03-13T03:07:17;97837.69;;;7.83;89.14
28181;BME280;15464;50.988;10.318;2023-03-13T03:09:44;97831.56;;;7.83;89.54
28181;BME280;15464;50.988;10.318;2023-03-13T03:12:10;97825.59;;;7.90;88.76
28181;BME280;15464;50.988;10.318;2023-03-13T03:14:37;97814.47;;;7.96;88.62
28181;BME280;15464;50.988;10.318;2023-03-13T03:17:04;97808.47;;;7.94;88.88
28181;BME280;15464;50.988;10.318;2023-03-13T03:19:30;97796.56;;;7.90;89.38
28181;BME280;15464;50.988;10.318;2023-03-13T03:21:57;97800.69;;;8.02;89.09
28181;BME280;15464;50.988;10.318;2023-03-13T03:24:24;97793.72;;;8.11;88.28
28181;BME280;15464;50.988;10.318;2023-03-13T03:26:50;97794.84;;;8.08;88.67
28181;BME280;15464;50.988;10.318;2023-03-13T03:29:17;97796.19;;;8.13;88.03
28181;BME280;15464;50.988;10.318;2023-03-13T03:31:44;97789.84;;;8.05;89.12
28181;BME280;15464;50.988;10.318;2023-03-13T03:34:11;97773.72;;;8.08;88.91
28181;BME280;15464;50.988;10.318;2023-03-13T03:36:37;97773.13;;;8.15;88.37
28181;BME280;15464;50.988;10.318;2023-03-13T03:39:04;97774.25;;;8.12;89.11
28181;BME280;15464;50.988;10.318;2023-03-13T03:41:31;97768.44;;;8.08;89.02
28181;BME280;15464;50.988;10.318;2023-03-13T03:43:58;97754.63;;;8.24;87.92
28181;BME280;15464;50.988;10.318;2023-03-13T03:46:24;97735.81;;;8.27;88.17
28181;BME280;15464;50.988;10.318;2023-03-13T03:48:51;97741.81;;;8.29;87.95
28181;BME280;15464;50.988;10.318;2023-03-13T03:51:17;97741.66;;;8.31;87.77
28181;BME280;15464;50.988;10.318;2023-03-13T03:53:44;97733.75;;;8.31;88.16
28181;BME280;15464;50.988;10.318;2023-03-13T03:56:11;97713.03;;;8.26;88.79
28181;BME280;15464;50.988;10.318;2023-03-13T03:58:38;97715.81;;;8.34;88.33
28181;BME280;15464;50.988;10.318;2023-03-13T04:01:04;97713.84;;;8.27;88.81
28181;BME280;15464;50.988;10.318;2023-03-13T04:03:31;97706.91;;;8.26;88.97
28181;BME280;15464;50.988;10.318;2023-03-13T04:05:58;97703.59;;;8.24;88.84
28181;BME280;15464;50.988;10.318;2023-03-13T04:08:25;97702.72;;;8.33;89.01
28181;BME280;15464;50.988;10.318;2023-03-13T04:10:52;97698.28;;;8.33;89.27
28181;BME280;15464;50.988;10.318;2023-03-13T04:13:19;97700.34;;;8.39;88.68
28181;BME280;15464;50.988;10.318;2023-03-13T04:15:45;97695.88;;;8.40;88.87
28181;BME280;15464;50.988;10.318;2023-03-13T04:18:12;97689.06;;;8.37;89.41
28181;BME280;15464;50.988;10.318;2023-03-13T04:20:39;97684.63;;;8.38;90.00
28181;BME280;15464;50.988;10.318;2023-03-13T04:23:05;97680.97;;;8.48;89.09
28181;BME280;15464;50.988;10.318;2023-03-13T04:25:32;97681.81;;;8.49;89.48
28181;BME280;15464;50.988;10.318;2023-03-13T04:27:59;97679.56;;;8.44;89.68
28181;BME280;15464;50.988;10.318;2023-03-13T04:30:26;97672.94;;;8.40;89.75
28181;BME280;15464;50.988;10.318;2023-03-13T04:32:53;97672.69;;;8.34;90.46
28181;BME280;15464;50.988;10.318;2023-03-13T04:35:20;97673.13;;;8.29;90.58
28181;BME280;15464;50.988;10.318;2023-03-13T04:37:46;97672.00;;;8.32;90.53
28181;BME280;15464;50.988;10.318;2023-03-13T04:40:13;97662.31;;;8.23;91.26
28181;BME280;15464;50.988;10.318;2023-03-13T04:42:41;97660.53;;;8.14;93.33
28181;BME280;15464;50.988;10.318;2023-03-13T04:45:10;97652.53;;;8.05;95.22
28181;BME280;15464;50.988;10.318;2023-03-13T04:47:37;97645.22;;;7.99;96.82
28181;BME280;15464;50.988;10.318;2023-03-13T04:50:04;97648.25;;;7.95;97.93
28181;BME280;15464;50.988;10.318;2023-03-13T04:52:31;97656.25;;;7.85;99.86
28181;BME280;15464;50.988;10.318;2023-03-13T04:54:58;97660.81;;;7.83;100.00
28181;BME280;15464;50.988;10.318;2023-03-13T04:57:25;97639.19;;;7.70;100.00
28181;BME280;15464;50.988;10.318;2023-03-13T04:59:52;97642.88;;;7.59;100.00
28181;BME280;15464;50.988;10.318;2023-03-13T05:02:19;97612.88;;;7.60;100.00
28181;BME280;15464;50.988;10.318;2023-03-13T05:04:46;97603.72;;;7.55;100.00
28181;BME280;15464;50.988;10.318;2023-03-13T05:07:12;97600.84;;;7.48;100.00
28181;BME280;15464;50.988;10.318;2023-03-13T05:09:39;97591.38;;;7.55;100.00
28181;BME280;15464;50.988;10.318;2023-03-13T05:12:06;97585.53;;;7.52;100.00
28181;BME280;15464;50.988;10.318;2023-03-13T05:14:33;97582.75;;;7.53;100.00
28181;BME280;15464;50.988;10.318;2023-03-13T05:16:59;97587.06;;;7.54;100.00
28181;BME280;15464;50.988;10.318;2023-03-13T05:19:26;97589.16;;;7.51;100.00
28181;BME280;15464;50.988;10.318;2023-03-13T05:21:53;97579.72;;;7.48;100.00
28181;BME280;15464;50.988;10.318;2023-03-13T05:24:19;97580.56;;;7.49;100.00
28181;BME280;15464;50.988;10.318;2023-03-13T05:26:46;97570.84;;;7.49;100.00
28181;BME280;15464;50.988;10.318;2023-03-13T05:29:13;97549.03;;;7.47;100.00
28181;BME280;15464;50.988;10.318;2023-03-13T05:31:39;97575.28;;;7.49;100.00
28181;BME280;15464;50.988;10.318;2023-03-13T05:34:06;97565.78;;;7.56;100.00
28181;BME280;15464;50.988;10.318;2023-03-13T05:36:33;97550.50;;;7.59;100.00
28181;BME280;15464;50.988;10.318;2023-03-13T05:39:00;97559.72;;;7.55;100.00
28181;BME280;15464;50.988;10.318;2023-03-13T05:41:26;97535.19;;;7.63;100.00
28181;BME280;15464;50.988;10.318;2023-03-13T05:43:53;97558.13;;;7.62;100.00
28181;BME280;15464;50.988;10.318;2023-03-13T05:46:20;97554.38;;;7.65;100.00
28181;BME280;15464;50.988;10.318;2023-03-13T05:48:47;97546.25;;;7.76;100.00
28181;BME280;15464;50.988;10.318;2023-03-13T05:51:13;97543.75;;;7.75;100.00
28181;BME280;15464;50.988;10.318;2023-03-13T05:53:40;97551.53;;;7.76;100.00
28181;BME280;15464;50.988;10.318;2023-03-13T05:56:07;97544.59;;;7.75;100.00
28181;BME280;15464;50.988;10.318;2023-03-13T05:58:33;97562.78;;;7.78;100.00
28181;BME280;15464;50.988;10.318;2023-03-13T06:01:08;97541.66;;;7.78;100.00
28181;BME280;15464;50.988;10.318;2023-03-13T06:03:35;97536.16;;;7.89;100.00
28181;BME280;15464;50.988;10.318;2023-03-13T06:06:02;97550.34;;;7.88;100.00
28181;BME280;15464;50.988;10.318;2023-03-13T06:08:29;97534.22;;;7.91;100.00
28181;BME280;15464;50.988;10.318;2023-03-13T06:10:59;97539.41;;;8.01;100.00
28181;BME280;15464;50.988;10.318;2023-03-13T06:13:26;97547.19;;;8.02;100.00
28181;BME280;15464;50.988;10.318;2023-03-13T06:15:55;97565.22;;;8.07;100.00
28181;BME280;15464;50.988;10.318;2023-03-13T06:18:23;97552.41;;;8.12;100.00
28181;BME280;15464;50.988;10.318;2023-03-13T06:20:58;97549.72;;;8.22;100.00
28181;BME280;15464;50.988;10.318;2023-03-13T06:23:25;97553.03;;;8.24;100.00
28181;BME280;15464;50.988;10.318;2023-03-13T06:25:53;97540.81;;;8.23;100.00
28181;BME280;15464;50.988;10.318;2023-03-13T06:28:20;97547.06;;;8.22;100.00
28181;BME280;15464;50.988;10.318;2023-03-13T06:30:46;97555.69;;;8.24;100.00
28181;BME280;15464;50.988;10.318;2023-03-13T06:33:13;97536.59;;;8.30;100.00
28181;BME280;15464;50.988;10.318;2023-03-13T06:35:41;97544.50;;;8.30;100.00
28181;BME280;15464;50.988;10.318;2023-03-13T06:38:24;97543.94;;;8.36;100.00
28181;BME280;15464;50.988;10.318;2023-03-13T06:40:51;97537.81;;;8.35;100.00
28181;BME280;15464;50.988;10.318;2023-03-13T06:43:18;97542.19;;;8.44;100.00
28181;BME280;15464;50.988;10.318;2023-03-13T06:45:45;97538.09;;;8.50;100.00
28181;BME280;15464;50.988;10.318;2023-03-13T06:48:11;97547.69;;;8.51;100.00
28181;BME280;15464;50.988;10.318;2023-03-13T06:50:38;97539.75;;;8.51;100.00
28181;BME280;15464;50.988;10.318;2023-03-13T06:53:06;97545.28;;;8.58;100.00
28181;BME280;15464;50.988;10.318;2023-03-13T06:55:33;97535.03;;;8.55;100.00
28181;BME280;15464;50.988;10.318;2023-03-13T06:57:59;97541.50;;;8.60;100.00
28181;BME280;15464;50.988;10.318;2023-03-13T07:00:26;97530.63;;;8.63;100.00
28181;BME280;15464;50.988;10.318;2023-03-13T07:02:53;97540.19;;;8.64;100.00
28181;BME280;15464;50.988;10.318;2023-03-13T07:05:19;97536.44;;;8.67;100.00
28181;BME280;15464;50.988;10.318;2023-03-13T07:07:46;97541.25;;;8.71;100.00
28181;BME280;15464;50.988;10.318;2023-03-13T07:10:13;97547.38;;;8.72;100.00
28181;BME280;15464;50.988;10.318;2023-03-13T07:12:39;97551.31;;;8.68;100.00
28181;BME280;15464;50.988;10.318;2023-03-13T07:15:07;97564.75;;;8.74;100.00
28181;BME280;15464;50.988;10.318;2023-03-13T07:17:34;97560.81;;;8.78;100.00
28181;BME280;15464;50.988;10.318;2023-03-13T07:20:01;97569.81;;;8.94;100.00
28181;BME280;15464;50.988;10.318;2023-03-13T07:22:28;97546.16;;;9.10;100.00
28181;BME280;15464;50.988;10.318;2023-03-13T07:24:55;97552.50;;;9.25;100.00
28181;BME280;15464;50.988;10.318;2023-03-13T07:27:22;97550.81;;;9.42;100.00
28181;BME280;15464;50.988;10.318;2023-03-13T07:29:48;97535.72;;;9.34;100.00
28181;BME280;15464;50.988;10.318;2023-03-13T07:32:15;97522.19;;;9.45;100.00
28181;BME280;15464;50.988;10.318;2023-03-13T07:34:42;97524.69;;;9.47;100.00
28181;BME280;15464;50.988;10.318;2023-03-13T07:37:15;97532.47;;;9.48;100.00
28181;BME280;15464;50.988;10.318;2023-03-13T07:39:42;97521.91;;;9.56;100.00
28181;BME280;15464;50.988;10.318;2023-03-13T07:42:10;97525.56;;;9.63;100.00
28181;BME280;15464;50.988;10.318;2023-03-13T07:44:37;97514.69;;;9.66;100.00
28181;BME280;15464;50.988;10.318;2023-03-13T07:47:04;97528.25;;;9.71;100.00
28181;BME280;15464;50.988;10.318;2023-03-13T07:49:31;97532.41;;;9.74;100.00
28181;BME280;15464;50.988;10.318;2023-03-13T07:51:58;97512.03;;;9.75;100.00
28181;BME280;15464;50.988;10.318;2023-03-13T07:54:24;97502.81;;;9.79;100.00
28181;BME280;15464;50.988;10.318;2023-03-13T07:56:51;97522.34;;;9.86;100.00
28181;BME280;15464;50.988;10.318;2023-03-13T07:59:18;97528.66;;;9.93;100.00
28181;BME280;15464;50.988;10.318;2023-03-13T08:01:45;97535.78;;;9.92;100.00
28181;BME280;15464;50.988;10.318;2023-03-13T08:04:12;97517.44;;;9.99;100.00
28181;BME280;15464;50.988;10.318;2023-03-13T08:06:39;97514.78;;;9.99;100.00
28181;BME280;15464;50.988;10.318;2023-03-13T08:09:07;97519.09;;;10.08;100.00
28181;BME280;15464;50.988;10.318;2023-03-13T08:11:37;97531.66;;;10.06;100.00
28181;BME280;15464;50.988;10.318;2023-03-13T08:14:06;97524.91;;;10.11;100.00
28181;BME280;15464;50.988;10.318;2023-03-13T08:16:34;97506.53;;;10.10;100.00
28181;BME280;15464;50.988;10.318;2023-03-13T08:19:02;97499.88;;;10.14;100.00
28181;BME280;15464;50.988;10.318;2023-03-13T08:21:33;97516.13;;;10.11;100.00
28181;BME280;15464;50.988;10.318;2023-03-13T08:24:03;97495.56;;;10.13;100.00
28181;BME280;15464;50.988;10.318;2023-03-13T08:26:33;97489.97;;;10.16;100.00
28181;BME280;15464;50.988;10.318;2023-03-13T08:29:03;97488.31;;;10.15;100.00
28181;BME280;15464;50.988;10.318;2023-03-13T08:31:35;97490.47;;;10.11;100.00
28181;BME280;15464;50.988;10.318;2023-03-13T08:34:02;97501.22;;;10.10;100.00
28181;BME280;15464;50.988;10.318;2023-03-13T08:36:34;97492.09;;;10.12;100.00
28181;BME280;15464;50.988;10.318;2023-03-13T08:39:08;97490.66;;;10.18;100.00
28181;BME280;15464;50.988;10.318;2023-03-13T08:41:36;97484.03;;;10.22;100.00
28181;BME280;15464;50.988;10.318;2023-03-13T08:44:06;97476.09;;;10.30;100.00
28181;BME280;15464;50.988;10.318;2023-03-13T08:46:34;97493.47;;;10.33;100.00
28181;BME280;15464;50.988;10.318;2023-03-13T08:49:03;97487.38;;;10.40;100.00
28181;BME280;15464;50.988;10.318;2023-03-13T08:51:30;97496.97;;;10.41;100.00
28181;BME280;15464;50.988;10.318;2023-03-13T08:53:57;97493.50;;;10.49;100.00
28181;BME280;15464;50.988;10.318;2023-03-13T08:56:25;97503.75;;;10.52;100.00
28181;BME280;15464;50.988;10.318;2023-03-13T08:58:54;97502.41;;;10.56;100.00
28181;BME280;15464;50.988;10.318;2023-03-13T09:01:23;97515.69;;;10.56;100.00
28181;BME280;15464;50.988;10.318;2023-03-13T09:03:50;97506.41;;;10.68;100.00
28181;BME280;15464;50.988;10.318;2023-03-13T09:06:18;97519.50;;;10.70;100.00
28181;BME280;15464;50.988;10.318;2023-03-13T09:08:45;97530.94;;;10.70;100.00
28181;BME280;15464;50.988;10.318;2023-03-13T09:11:14;97516.53;;;10.73;100.00
28181;BME280;15464;50.988;10.318;2023-03-13T09:13:44;97525.78;;;10.77;100.00
28181;BME280;15464;50.988;10.318;2023-03-13T09:16:16;97530.78;;;10.80;100.00
28181;BME280;15464;50.988;10.318;2023-03-13T09:18:44;97507.53;;;10.82;100.00
28181;BME280;15464;50.988;10.318;2023-03-13T09:21:16;97523.13;;;10.85;100.00
28181;BME280;15464;50.988;10.318;2023-03-13T09:23:43;97521.81;;;10.81;100.00
28181;BME280;15464;50.988;10.318;2023-03-13T09:26:11;97531.25;;;10.83;100.00
28181;BME280;15464;50.988;10.318;2023-03-13T09:28:38;97537.25;;;10.85;100.00
28181;BME280;15464;50.988;10.318;2023-03-13T09:31:10;97515.19;;;10.93;100.00
28181;BME280;15464;50.988;10.318;2023-03-13T09:33:39;97518.63;;;10.93;100.00
28181;BME280;15464;50.988;10.318;2023-03-13T09:36:06;97517.84;;;10.93;100.00
28181;BME280;15464;50.988;10.318;2023-03-13T09:38:34;97516.13;;;11.00;100.00
28181;BME280;15464;50.988;10.318;2023-03-13T09:41:21;97520.09;;;11.12;100.00
28181;BME280;15464;50.988;10.318;2023-03-13T09:52:26;97511.44;;;11.26;100.00
28181;BME280;15464;50.988;10.318;2023-03-13T09:57:32;97503.47;;;11.35;100.00
28181;BME280;15464;50.988;10.318;2023-03-13T10:00:28;97511.06;;;11.46;99.97
28181;BME280;15464;50.988;10.318;2023-03-13T10:03:01;97488.03;;;11.69;99.89
28181;BME280;15464;50.988;10.318;2023-03-13T10:05:31;97493.16;;;11.87;98.71
28181;BME280;15464;50.988;10.318;2023-03-13T10:08:22;97479.94;;;12.01;97.07
28181;BME280;15464;50.988;10.318;2023-03-13T10:11:10;97465.53;;;12.19;95.87
28181;BME280;15464;50.988;10.318;2023-03-13T10:13:41;97455.00;;;12.48;95.30
28181;BME280;15464;50.988;10.318;2023-03-13T10:16:25;97458.00;;;12.82;93.60
28181;BME280;15464;50.988;10.318;2023-03-13T10:18:55;97449.09;;;12.75;90.92
28181;BME280;15464;50.988;10.318;2023-03-13T10:21:25;97445.53;;;12.83;90.40
28181;BME280;15464;50.988;10.318;2023-03-13T10:24:23;97443.88;;;12.82;90.59
28181;BME280;15464;50.988;10.318;2023-03-13T10:26:55;97436.72;;;12.82;90.25
28181;BME280;15464;50.988;10.318;2023-03-13T10:29:27;97454.22;;;12.77;89.73
28181;BME280;15464;50.988;10.318;2023-03-13T10:32:02;97426.44;;;12.79;89.52
28181;BME280;15464;50.988;10.318;2023-03-13T10:34:53;97440.75;;;12.78;89.52
28181;BME280;15464;50.988;10.318;2023-03-13T10:37:32;97440.00;;;12.70;88.21
28181;BME280;15464;50.988;10.318;2023-03-13T10:40:22;97438.03;;;12.86;89.37
28181;BME280;15464;50.988;10.318;2023-03-13T10:42:52;97441.41;;;12.95;87.99
28181;BME280;15464;50.988;10.318;2023-03-13T10:45:19;97445.06;;;12.94;88.24
28181;BME280;15464;50.988;10.318;2023-03-13T10:47:55;97461.25;;;12.92;88.68
28181;BME280;15464;50.988;10.318;2023-03-13T10:50:24;97449.66;;;12.85;87.35
28181;BME280;15464;50.988;10.318;2023-03-13T10:52:51;97446.28;;;12.91;88.44
28181;BME280;15464;50.988;10.318;2023-03-13T10:55:21;97435.53;;;12.85;87.88
28181;BME280;15464;50.988;10.318;2023-03-13T10:57:52;97447.75;;;12.79;86.71
28181;BME280;15464;50.988;10.318;2023-03-13T11:03:25;97449.41;;;12.80;88.02
28181;BME280;15464;50.988;10.318;2023-03-13T11:05:57;97449.81;;;12.69;87.92
28181;BME280;15464;50.988;10.318;2023-03-13T11:08:26;97452.03;;;12.66;88.15
28181;BME280;15464;50.988;10.318;2023-03-13T11:10:59;97449.19;;;12.67;87.76
28181;BME280;15464;50.988;10.318;2023-03-13T11:13:33;97443.56;;;12.62;88.67
28181;BME280;15464;50.988;10.318;2023-03-13T11:18:51;97448.03;;;12.47;88.89
28181;BME280;15464;50.988;10.318;2023-03-13T11:21:33;97445.09;;;12.42;90.06
28181;BME280;15464;50.988;10.318;2023-03-13T11:24:09;97437.44;;;12.39;90.37
28181;BME280;15464;50.988;10.318;2023-03-13T11:27:21;97437.63;;;12.37;89.96
28181;BME280;15464;50.988;10.318;2023-03-13T11:30:07;97428.13;;;12.43;90.16
28181;BME280;15464;50.988;10.318;2023-03-13T11:37:51;97394.97;;;12.83;88.38
28181;BME280;15464;50.988;10.318;2023-03-13T11:46:26;97377.25;;;13.19;87.04
28181;BME280;15464;50.988;10.318;2023-03-13T11:52:20;97376.91;;;13.58;86.12
28181;BME280;15464;50.988;10.318;2023-03-13T12:00:57;97383.03;;;13.38;85.50
28181;BME280;15464;50.988;10.318;2023-03-13T12:03:39;97382.13;;;13.30;85.58
28181;BME280;15464;50.988;10.318;2023-03-13T12:06:40;97363.69;;;13.29;85.53
28181;BME280;15464;50.988;10.318;2023-03-13T12:09:13;97356.78;;;13.20;85.40
28181;BME280;15464;50.988;10.318;2023-03-13T12:14:36;97371.31;;;13.17;86.18
28181;BME280;15464;50.988;10.318;2023-03-13T12:17:09;97359.94;;;13.23;85.99
28181;BME280;15464;50.988;10.318;2023-03-13T12:23:16;97355.19;;;13.40;86.04
28181;BME280;15464;50.988;10.318;2023-03-13T12:25:51;97343.56;;;13.26;85.37
28181;BME280;15464;50.988;10.318;2023-03-13T12:31:15;97356.63;;;13.21;86.05
28181;BME280;15464;50.988;10.318;2023-03-13T12:33:55;97337.88;;;13.29;86.00
28181;BME280;15464;50.988;10.318;2023-03-13T12:36:35;97347.84;;;13.42;86.19
28181;BME280;15464;50.988;10.318;2023-03-13T12:39:13;97341.78;;;13.48;86.34
28181;BME280;15464;50.988;10.318;2023-03-13T12:50:52;97314.75;;;13.51;85.87
28181;BME280;15464;50.988;10.318;2023-03-13T12:59:34;97301.81;;;13.69;85.58
28181;BME280;15464;50.988;10.318;2023-03-13T13:02:25;97304.56;;;13.55;84.57
28181;BME280;15464;50.988;10.318;2023-03-13T13:04:54;97292.31;;;13.60;85.27
28181;BME280;15464;50.988;10.318;2023-03-13T13:07:34;97297.66;;;13.60;84.73
28181;BME280;15464;50.988;10.318;2023-03-13T13:10:12;97280.66;;;13.61;83.95
28181;BME280;15464;50.988;10.318;2023-03-13T13:12:46;97280.44;;;13.63;84.77
28181;BME280;15464;50.988;10.318;2023-03-13T13:15:32;97276.75;;;13.64;84.17
28181;BME280;15464;50.988;10.318;2023-03-13T13:18:13;97272.91;;;13.66;84.54
28181;BME280;15464;50.988;10.318;2023-03-13T13:20:48;97270.59;;;13.63;84.94
28181;BME280;15464;50.988;10.318;2023-03-13T13:23:27;97269.41;;;13.66;84.63
28181;BME280;15464;50.988;10.318;2023-03-13T13:29:00;97269.72;;;13.56;84.54
28181;BME280;15464;50.988;10.318;2023-03-13T13:31:53;97261.41;;;13.45;84.60
28181;BME280;15464;50.988;10.318;2023-03-13T13:36:54;97268.22;;;13.47;84.77
28181;BME280;15464;50.988;10.318;2023-03-13T13:39:43;97270.41;;;13.44;85.50
28181;BME280;15464;50.988;10.318;2023-03-13T13:47:41;97266.06;;;13.36;85.35
28181;BME280;15464;50.988;10.318;2023-03-13T13:50:21;97262.28;;;13.30;86.19
28181;BME280;15464;50.988;10.318;2023-03-13T13:52:49;97266.16;;;13.28;86.34
28181;BME280;15464;50.988;10.318;2023-03-13T14:00:45;97265.69;;;13.24;87.27
28181;BME280;15464;50.988;10.318;2023-03-13T14:03:20;97260.59;;;13.23;86.85
28181;BME280;15464;50.988;10.318;2023-03-13T14:05:51;97255.06;;;13.24;87.41
28181;BME280;15464;50.988;10.318;2023-03-13T14:08:25;97249.13;;;13.08;87.70
28181;BME280;15464;50.988;10.318;2023-03-13T14:13:40;97250.78;;;13.09;89.29
28181;BME280;15464;50.988;10.318;2023-03-13T14:16:25;97243.72;;;13.01;89.47
28181;BME280;15464;50.988;10.318;2023-03-13T14:18:53;97240.03;;;13.02;89.45
28181;BME280;15464;50.988;10.318;2023-03-13T14:21:22;97241.22;;;13.00;90.22
28181;BME280;15464;50.988;10.318;2023-03-13T14:23:50;97245.03;;;12.90;90.94
28181;BME280;15464;50.988;10.318;2023-03-13T14:26:23;97235.91;;;13.00;90.27
28181;BME280;15464;50.988;10.318;2023-03-13T14:28:53;97222.16;;;12.96;90.02
28181;BME280;15464;50.988;10.318;2023-03-13T14:31:32;97215.00;;;12.97;90.30
28181;BME280;15464;50.988;10.318;2023-03-13T14:34:03;97220.78;;;13.00;89.99
28181;BME280;15464;50.988;10.318;2023-03-13T14:36:44;97212.25;;;13.05;89.70